createdAt,value
2023-03-15T00:02:26.011Z,158940.38
2023-03-15T00:04:55.691Z,158917.72
2023-03-15T00:07:26.295Z,158933.72
2023-03-15T00:09:55.140Z,158931.06
2023-03-15T00:12:25.781Z,158952.38
2023-03-15T00:14:54.448Z,158960.38
2023-03-15T00:17:23.147Z,158968.38
2023-03-15T00:19:51.429Z,158971.03
2023-03-15T00:22:19.148Z,158979.00
2023-03-15T00:24:47.184Z,158968.38
2023-03-15T00:27:15.081Z,158968.38
2023-03-15T00:29:43.718Z,158973.72
2023-03-15T00:32:11.486Z,158971.03
2023-03-15T00:34:40.820Z,158681.75
2023-03-15T00:37:08.736Z,158431.41
2023-03-15T00:39:38.738Z,158243.75
2023-03-15T00:42:09.257Z,158109.31
2023-03-15T00:44:37.515Z,158001.56
2023-03-15T00:47:05.721Z,157937.75
2023-03-15T00:49:34.250Z,157895.22
2023-03-15T00:52:02.925Z,157842.06
2023-03-15T00:54:33.930Z,157812.78
2023-03-15T00:57:02.782Z,157780.94
2023-03-15T00:59:35.444Z,157738.41
2023-03-15T01:02:04.306Z,157687.94
2023-03-15T01:04:32.766Z,157658.66
2023-03-15T01:07:00.726Z,157606.88
2023-03-15T01:09:31.209Z,157533.84
2023-03-15T01:11:59.667Z,157491.38
2023-03-15T01:14:28.699Z,157475.41
2023-03-15T01:16:56.583Z,157478.09
2023-03-15T01:19:25.004Z,157464.81
2023-03-15T01:21:53.934Z,157460.78
2023-03-15T01:24:22.012Z,157443.56
2023-03-15T01:26:51.346Z,157434.22
2023-03-15T01:29:19.926Z,157417.00
2023-03-15T01:31:47.890Z,157407.72
2023-03-15T01:34:16.368Z,157406.34
2023-03-15T01:36:44.337Z,157410.34
2023-03-15T01:39:12.901Z,157411.69
2023-03-15T01:41:46.091Z,157401.09
2023-03-15T01:44:15.521Z,157382.47
2023-03-15T01:46:44.992Z,157393.13
2023-03-15T01:49:32.771Z,157358.63
2023-03-15T01:52:03.935Z,157334.69
2023-03-15T01:55:08.950Z,157309.50
2023-03-15T01:57:45.746Z,157297.56
2023-03-15T02:00:20.352Z,157275.00
2023-03-15T02:03:05.425Z,157264.34
2023-03-15T02:05:36.525Z,157244.44
2023-03-15T02:08:07.996Z,157236.50
2023-03-15T02:10:44.053Z,157247.13
2023-03-15T02:13:16.438Z,157251.09
2023-03-15T02:15:47.161Z,157245.81
2023-03-15T02:18:22.847Z,157243.13
2023-03-15T02:21:00.827Z,157241.81
2023-03-15T02:23:29.533Z,157244.44
2023-03-15T02:25:58.213Z,157257.72
2023-03-15T02:28:28.955Z,157257.72
2023-03-15T02:30:57.793Z,157265.69
2023-03-15T02:33:31.559Z,157256.41
2023-03-15T02:36:12.241Z,157252.47
2023-03-15T02:38:39.940Z,157260.41
2023-03-15T02:41:08.276Z,157259.03
2023-03-15T02:43:36.683Z,157264.34
2023-03-15T02:46:05.770Z,157257.72
2023-03-15T02:48:35.321Z,157263.03
2023-03-15T02:51:04.496Z,157257.72
2023-03-15T02:53:32.936Z,157251.09
2023-03-15T02:56:00.896Z,157257.72
2023-03-15T02:58:29.259Z,157263.03
2023-03-15T03:00:58.754Z,157255.09
2023-03-15T03:03:27.008Z,157253.78
2023-03-15T03:05:55.172Z,157273.69
2023-03-15T03:08:23.544Z,157278.94
2023-03-15T03:10:53.006Z,157263.03
2023-03-15T03:13:20.893Z,157275.00
2023-03-15T03:15:58.724Z,157273.69
2023-03-15T03:18:32.116Z,157296.22
2023-03-15T03:21:00.846Z,157292.22
2023-03-15T03:23:29.371Z,157289.59
2023-03-15T03:25:59.234Z,157289.59
2023-03-15T03:28:29.891Z,157284.28
2023-03-15T03:30:59.533Z,157275.00
2023-03-15T03:33:28.162Z,157278.94
2023-03-15T03:36:02.505Z,157293.53
2023-03-15T03:38:30.753Z,157292.22
2023-03-15T03:41:01.729Z,157292.22
2023-03-15T03:43:32.589Z,157296.22
2023-03-15T03:46:01.370Z,157296.22
2023-03-15T03:48:29.806Z,157288.28
2023-03-15T03:50:58.672Z,157296.22
2023-03-15T03:53:26.473Z,157300.19
2023-03-15T03:55:57.194Z,157290.91
2023-03-15T03:58:25.024Z,157293.53
2023-03-15T04:00:59.564Z,157290.91
2023-03-15T04:03:31.416Z,157284.28
2023-03-15T04:06:06.715Z,157284.28
2023-03-15T04:08:38.972Z,157293.53
2023-03-15T04:11:08.333Z,157294.91
2023-03-15T04:13:39.529Z,157302.88
2023-03-15T04:16:08.580Z,157306.81
2023-03-15T04:18:51.873Z,157309.50
2023-03-15T04:21:23.377Z,157316.16
2023-03-15T04:23:55.446Z,157318.78
2023-03-15T04:26:46.726Z,157317.47
2023-03-15T04:29:42.147Z,157333.38
2023-03-15T04:32:26.583Z,157321.41
2023-03-15T04:35:12.967Z,157329.41
2023-03-15T04:38:01.513Z,157312.13
2023-03-15T04:41:01.612Z,157317.47
2023-03-15T04:43:47.801Z,157326.75
2023-03-15T04:46:34.462Z,157329.41
2023-03-15T04:49:20.896Z,157316.16
2023-03-15T04:52:00.779Z,157322.78
2023-03-15T04:54:42.599Z,157316.16
2023-03-15T04:57:21.694Z,157306.81
2023-03-15T05:00:23.045Z,157306.81
2023-03-15T05:03:23.488Z,157302.88
2023-03-15T05:06:08.569Z,157313.47
2023-03-15T05:08:48.426Z,157312.13
2023-03-15T05:11:35.562Z,157308.13
2023-03-15T05:14:16.446Z,157310.81
2023-03-15T05:17:17.061Z,157281.63
2023-03-15T05:20:08.539Z,157296.22
2023-03-15T05:22:56.948Z,157301.56
2023-03-15T05:25:42.299Z,157308.13
2023-03-15T05:28:25.833Z,157289.59
2023-03-15T05:31:25.600Z,157288.28
2023-03-15T05:34:24.381Z,157293.53
2023-03-15T05:37:02.804Z,157297.56
2023-03-15T05:39:36.747Z,157288.28
2023-03-15T05:42:30.845Z,157282.97
2023-03-15T05:45:08.638Z,157268.38
2023-03-15T05:47:59.414Z,157268.38
2023-03-15T05:50:40.681Z,157277.63
2023-03-15T05:53:27.017Z,157280.31
2023-03-15T05:56:13.796Z,157284.28
2023-03-15T05:58:47.882Z,157281.63
2023-03-15T06:01:36.368Z,157278.94
2023-03-15T06:04:12.721Z,157260.41
2023-03-15T06:06:41.858Z,157255.09
2023-03-15T06:09:11.729Z,157243.13
2023-03-15T06:11:40.416Z,157260.41
2023-03-15T06:14:12.622Z,157252.47
2023-03-15T06:16:59.199Z,157255.09
2023-03-15T06:19:30.052Z,157251.09
2023-03-15T06:21:58.478Z,157252.47
2023-03-15T06:24:36.343Z,157269.69
2023-03-15T06:27:05.423Z,157277.63
2023-03-15T06:29:35.787Z,157269.69
2023-03-15T06:32:05.242Z,157281.63
2023-03-15T06:34:36.988Z,157296.22
2023-03-15T06:37:05.876Z,157282.97
2023-03-15T06:39:34.653Z,157290.91
2023-03-15T06:42:04.944Z,157302.88
2023-03-15T06:44:37.644Z,157298.88
2023-03-15T06:47:09.455Z,157294.91
2023-03-15T06:49:38.305Z,157294.91
2023-03-15T06:52:07.681Z,157302.88
2023-03-15T06:54:35.943Z,157284.28
2023-03-15T06:57:04.508Z,157284.28
2023-03-15T06:59:32.748Z,157265.69
2023-03-15T07:02:01.423Z,157302.88
2023-03-15T07:04:29.355Z,157302.88
2023-03-15T07:06:57.681Z,157314.78
2023-03-15T07:09:25.715Z,157317.47
2023-03-15T07:11:53.918Z,157338.69
2023-03-15T07:14:22.471Z,157330.75
2023-03-15T07:16:50.939Z,157329.41
2023-03-15T07:19:18.655Z,157321.41
2023-03-15T07:21:47.006Z,157313.47
2023-03-15T07:24:15.132Z,157328.06
2023-03-15T07:26:43.480Z,157317.47
2023-03-15T07:29:11.309Z,157308.13
2023-03-15T07:31:39.709Z,157308.13
2023-03-15T07:34:07.739Z,157316.16
2023-03-15T07:36:36.223Z,157313.47
2023-03-15T07:39:05.200Z,157314.78
2023-03-15T07:41:33.538Z,157306.81
2023-03-15T07:44:16.008Z,157277.63
2023-03-15T07:46:44.097Z,157302.88
2023-03-15T07:49:11.875Z,157273.69
2023-03-15T07:51:39.617Z,157302.88
2023-03-15T07:54:07.482Z,157284.28
2023-03-15T07:56:35.719Z,157324.09
2023-03-15T07:59:03.505Z,157334.69
2023-03-15T08:01:32.157Z,157349.28
2023-03-15T08:04:00.094Z,157362.56
2023-03-15T08:06:28.149Z,157390.44
2023-03-15T08:08:55.954Z,157390.44
2023-03-15T08:11:24.507Z,157383.78
2023-03-15T08:13:52.346Z,157389.13
2023-03-15T08:17:17.070Z,157430.28
2023-03-15T08:20:03.282Z,157463.47
2023-03-15T08:22:31.272Z,157501.97
2023-03-15T08:24:59.310Z,157528.53
2023-03-15T08:27:27.953Z,157555.09
2023-03-15T08:29:55.710Z,157621.47
2023-03-15T08:32:24.038Z,157690.56
2023-03-15T08:34:53.321Z,157677.28
2023-03-15T08:37:21.750Z,157707.88
2023-03-15T08:39:49.658Z,157726.44
2023-03-15T08:42:18.336Z,157701.22
2023-03-15T08:44:46.093Z,157745.06
2023-03-15T08:47:14.716Z,157743.72
2023-03-15T08:49:42.552Z,157780.94
2023-03-15T08:52:11.181Z,157767.63
2023-03-15T08:54:39.099Z,157745.06
2023-03-15T08:57:07.401Z,157726.44
2023-03-15T08:59:35.239Z,157709.19
2023-03-15T09:02:04.284Z,157686.56
2023-03-15T09:04:34.348Z,157733.09
2023-03-15T09:07:02.405Z,157762.31
2023-03-15T09:09:30.566Z,157767.63
2023-03-15T09:11:58.694Z,157735.72
2023-03-15T09:14:26.491Z,157693.22
2023-03-15T09:16:54.942Z,157674.63
2023-03-15T09:19:22.830Z,157652.06
2023-03-15T09:21:51.493Z,157640.09
2023-03-15T09:24:19.139Z,157656.03
2023-03-15T09:26:47.586Z,157637.41
2023-03-15T09:29:15.367Z,157626.81
2023-03-15T09:31:43.682Z,157628.13
2023-03-15T09:34:11.470Z,157629.44
2023-03-15T09:36:39.614Z,157609.50
2023-03-15T09:39:08.592Z,157653.38
2023-03-15T09:41:46.848Z,157678.59
2023-03-15T09:44:54.882Z,157705.19
2023-03-15T09:47:39.381Z,157771.63
2023-03-15T09:50:30.765Z,157746.38
2023-03-15T09:53:01.504Z,157742.38
2023-03-15T09:55:30.110Z,157741.03
2023-03-15T09:58:04.067Z,157725.13
2023-03-15T10:01:06.159Z,157753.03
2023-03-15T10:03:50.813Z,157804.81
2023-03-15T10:06:24.407Z,157870.00
2023-03-15T10:08:58.753Z,157895.22
2023-03-15T10:11:51.114Z,157867.31
2023-03-15T10:14:28.462Z,157826.09
2023-03-15T10:16:56.020Z,157791.53
2023-03-15T10:19:52.498Z,157815.47
2023-03-15T10:22:43.718Z,157783.56
2023-03-15T10:25:24.127Z,157827.47
2023-03-15T10:28:01.855Z,157839.38
2023-03-15T10:30:33.399Z,157867.31
2023-03-15T10:33:16.790Z,157907.19
2023-03-15T10:35:44.868Z,157965.69
2023-03-15T10:38:17.136Z,158024.22
2023-03-15T10:40:53.801Z,158068.09
2023-03-15T10:43:22.776Z,158076.06
2023-03-15T10:46:14.329Z,158135.94
2023-03-15T10:49:01.478Z,158089.38
2023-03-15T10:51:34.908Z,158041.47
2023-03-15T10:54:04.633Z,157984.31
2023-03-15T10:56:38.151Z,157977.66
2023-03-15T10:59:16.710Z,157937.75
2023-03-15T11:01:48.573Z,157957.69
2023-03-15T11:04:22.392Z,157920.50
2023-03-15T11:07:01.082Z,157928.47
2023-03-15T11:09:39.441Z,157879.28
2023-03-15T11:12:10.347Z,157854.00
2023-03-15T11:14:46.641Z,157858.00
2023-03-15T11:17:21.408Z,157887.25
2023-03-15T11:19:59.860Z,157858.00
2023-03-15T11:22:28.176Z,157850.03
2023-03-15T11:24:55.496Z,157854.00
2023-03-15T11:27:24.462Z,157856.69
2023-03-15T11:29:56.188Z,157826.09
2023-03-15T11:32:27.191Z,157831.41
2023-03-15T11:35:07.898Z,157835.44
2023-03-15T11:37:45.118Z,157867.31
2023-03-15T11:40:24.539Z,157876.63
2023-03-15T11:43:05.272Z,157859.34
2023-03-15T11:45:37.681Z,157867.31
2023-03-15T11:48:40.831Z,157891.25
2023-03-15T11:51:09.185Z,157899.22
2023-03-15T11:53:50.606Z,157893.91
2023-03-15T11:56:25.689Z,157875.25
2023-03-15T11:59:15.944Z,157881.91
2023-03-15T12:01:49.951Z,157915.16
2023-03-15T12:04:34.121Z,157936.44
2023-03-15T12:07:06.686Z,157971.00
2023-03-15T12:09:37.618Z,158026.84
2023-03-15T12:12:26.920Z,158018.88
2023-03-15T12:15:20.262Z,158028.19
2023-03-15T12:17:54.929Z,158054.78
2023-03-15T12:20:39.200Z,158056.09
2023-03-15T12:23:19.298Z,158014.88
2023-03-15T12:26:00.280Z,157933.78
2023-03-15T12:28:28.893Z,157936.44
2023-03-15T12:31:01.892Z,157919.19
2023-03-15T12:33:32.149Z,157932.47
2023-03-15T12:36:30.832Z,157932.47
2023-03-15T12:39:37.825Z,157927.16
2023-03-15T12:42:06.654Z,157935.13
2023-03-15T12:44:39.879Z,157937.75
2023-03-15T12:47:10.689Z,157945.72
2023-03-15T12:49:39.595Z,157947.09
2023-03-15T12:52:16.860Z,157956.38
2023-03-15T12:54:46.581Z,157957.69
2023-03-15T12:57:20.011Z,157977.66
2023-03-15T12:59:55.276Z,157976.34
2023-03-15T13:02:42.153Z,157951.06
2023-03-15T13:05:26.608Z,157944.41
2023-03-15T13:08:19.888Z,157959.03
2023-03-15T13:11:05.581Z,157965.69
2023-03-15T13:14:03.482Z,157968.38
2023-03-15T13:16:45.059Z,157944.41
2023-03-15T13:19:23.442Z,157956.38
2023-03-15T13:22:09.936Z,157972.31
2023-03-15T13:24:38.204Z,157990.97
2023-03-15T13:27:14.219Z,158030.88
2023-03-15T13:29:42.842Z,158010.91
2023-03-15T13:32:19.226Z,158013.56
2023-03-15T13:34:48.201Z,157993.59
2023-03-15T13:37:18.134Z,157990.97
2023-03-15T13:40:05.609Z,157988.28
2023-03-15T13:42:34.043Z,158021.53
2023-03-15T13:45:12.688Z,158048.13
2023-03-15T13:47:42.189Z,158084.03
2023-03-15T13:50:16.428Z,158089.38
2023-03-15T13:52:44.749Z,158073.41
2023-03-15T13:55:15.518Z,158056.09
2023-03-15T13:57:43.561Z,158068.09
2023-03-15T14:00:17.561Z,158076.06
2023-03-15T14:02:54.273Z,158123.94
2023-03-15T14:05:27.720Z,158098.66
2023-03-15T14:08:03.195Z,158066.78
2023-03-15T14:10:36.786Z,158033.50
2023-03-15T14:13:23.343Z,158014.88
2023-03-15T14:15:57.853Z,157948.41
2023-03-15T14:18:32.438Z,157920.50
2023-03-15T14:21:06.389Z,157889.88
2023-03-15T14:23:40.933Z,157896.53
2023-03-15T14:26:19.864Z,157876.63
2023-03-15T14:29:02.328Z,157889.88
2023-03-15T14:31:34.829Z,157870.00
2023-03-15T14:34:33.818Z,157883.28
2023-03-15T14:37:05.840Z,157871.31
2023-03-15T14:39:43.036Z,157888.56
2023-03-15T14:42:12.569Z,157865.97
2023-03-15T14:44:40.312Z,157871.31
2023-03-15T14:47:16.814Z,157881.91
2023-03-15T14:49:44.620Z,157904.56
2023-03-15T14:52:13.387Z,157908.50
2023-03-15T14:54:45.047Z,157924.44
2023-03-15T14:57:13.607Z,157931.09
2023-03-15T14:59:41.393Z,157935.13
2023-03-15T15:02:18.377Z,157961.72
2023-03-15T15:04:48.498Z,157941.75
2023-03-15T15:07:18.801Z,157947.09
2023-03-15T15:09:50.958Z,157933.78
2023-03-15T15:12:19.534Z,157905.88
2023-03-15T15:14:47.404Z,157884.59
2023-03-15T15:17:15.869Z,157883.28
2023-03-15T15:19:44.448Z,157859.34
2023-03-15T15:22:14.065Z,157815.47
2023-03-15T15:24:41.977Z,157806.19
2023-03-15T15:27:11.440Z,157784.88
2023-03-15T15:29:39.655Z,157791.53
2023-03-15T15:32:08.239Z,157751.69
2023-03-15T15:34:37.643Z,157743.72
2023-03-15T15:37:06.180Z,157718.47
2023-03-15T15:39:34.015Z,157709.19
2023-03-15T15:42:02.714Z,157710.50
2023-03-15T15:44:30.686Z,157706.50
2023-03-15T15:47:01.289Z,157710.50
2023-03-15T15:49:29.256Z,157699.84
2023-03-15T15:51:57.915Z,157693.22
2023-03-15T15:54:27.606Z,157681.28
2023-03-15T15:56:59.814Z,157668.00
2023-03-15T15:59:27.777Z,157640.09
2023-03-15T16:02:00.995Z,157620.16
2023-03-15T16:04:30.625Z,157633.44
2023-03-15T16:07:02.005Z,157625.50
2023-03-15T16:09:32.107Z,157605.56
2023-03-15T16:12:00.469Z,157605.56
2023-03-15T16:14:28.264Z,157578.97
2023-03-15T16:16:56.194Z,157583.00
2023-03-15T16:19:24.159Z,157584.31
2023-03-15T16:21:54.608Z,157567.03
2023-03-15T16:24:26.533Z,157557.75
2023-03-15T16:27:01.109Z,157543.13
2023-03-15T16:29:41.458Z,157551.09
2023-03-15T16:32:24.442Z,157529.84
2023-03-15T16:34:57.610Z,157521.88
2023-03-15T16:37:30.204Z,157487.38
2023-03-15T16:40:01.024Z,157501.97
2023-03-15T16:42:29.639Z,157492.69
2023-03-15T16:44:57.440Z,157492.69
2023-03-15T16:47:25.757Z,157478.09
2023-03-15T16:49:53.342Z,157471.44
2023-03-15T16:52:21.891Z,157456.84
2023-03-15T16:54:50.176Z,157440.88
2023-03-15T16:57:22.182Z,157415.69
2023-03-15T16:59:50.659Z,157410.34
2023-03-15T17:02:28.009Z,157389.13
2023-03-15T17:04:56.626Z,157377.16
2023-03-15T17:07:32.196Z,157359.94
2023-03-15T17:10:07.483Z,157347.97
2023-03-15T17:12:36.497Z,157340.00
2023-03-15T17:15:04.694Z,157324.09
2023-03-15T17:17:34.214Z,157324.09
2023-03-15T17:20:02.683Z,157328.06
2023-03-15T17:22:30.933Z,157325.41
2023-03-15T17:24:58.583Z,157313.47
2023-03-15T17:27:33.880Z,157309.50
2023-03-15T17:30:02.510Z,157288.28
2023-03-15T17:32:31.449Z,157275.00
2023-03-15T17:34:59.745Z,157265.69
2023-03-15T17:37:30.873Z,157247.13
2023-03-15T17:39:59.325Z,157216.59
2023-03-15T17:42:27.623Z,157202.00
2023-03-15T17:44:55.676Z,157182.09
2023-03-15T17:47:23.956Z,157159.56
2023-03-15T17:49:52.056Z,157123.75
2023-03-15T17:52:21.076Z,157103.84
2023-03-15T17:54:48.799Z,157082.63
2023-03-15T17:57:17.139Z,157040.19
2023-03-15T17:59:44.864Z,157008.41
2023-03-15T18:02:15.713Z,156987.19
2023-03-15T18:04:43.678Z,156963.28
2023-03-15T18:07:12.106Z,156934.13
2023-03-15T18:09:40.275Z,156912.94
2023-03-15T18:12:13.199Z,156879.78
2023-03-15T18:14:42.180Z,156870.53
2023-03-15T18:17:10.780Z,156857.25
2023-03-15T18:19:38.722Z,156832.06
2023-03-15T18:22:07.212Z,156814.84
2023-03-15T18:24:34.923Z,156797.66
2023-03-15T18:27:03.626Z,156787.03
2023-03-15T18:29:32.307Z,156764.50
2023-03-15T18:32:01.043Z,156744.63
2023-03-15T18:34:30.348Z,156727.38
2023-03-15T18:36:58.500Z,156711.50
2023-03-15T18:39:26.311Z,156690.31
2023-03-15T18:41:54.951Z,156693.00
2023-03-15T18:44:23.343Z,156687.69
2023-03-15T18:46:51.426Z,156682.38
2023-03-15T18:49:19.272Z,156678.38
2023-03-15T18:51:47.671Z,156677.06
2023-03-15T18:54:15.710Z,156674.44
2023-03-15T18:56:44.177Z,156679.75
2023-03-15T18:59:12.327Z,156682.38
2023-03-15T19:01:42.612Z,156673.13
2023-03-15T19:04:11.265Z,156654.56
2023-03-15T19:06:39.997Z,156683.69
2023-03-15T19:09:07.856Z,156685.00
2023-03-15T19:11:42.178Z,156665.16
2023-03-15T19:14:11.008Z,156675.75
2023-03-15T19:16:39.449Z,156670.44
2023-03-15T19:19:07.414Z,156667.81
2023-03-15T19:21:36.109Z,156667.81
2023-03-15T19:24:04.947Z,156661.19
2023-03-15T19:26:33.513Z,156654.56
2023-03-15T19:29:04.070Z,156654.56
2023-03-15T19:31:33.145Z,156637.34
2023-03-15T19:34:01.689Z,156604.22
2023-03-15T19:36:30.272Z,156626.75
2023-03-15T19:38:58.338Z,156613.50
2023-03-15T19:41:26.383Z,156614.81
2023-03-15T19:43:54.287Z,156608.19
2023-03-15T19:46:22.580Z,156606.88
2023-03-15T19:48:50.496Z,156591.00
2023-03-15T19:51:18.917Z,156594.97
2023-03-15T19:53:47.471Z,156597.63
2023-03-15T19:56:15.754Z,156581.72
2023-03-15T19:58:43.730Z,156581.72
2023-03-15T20:01:12.557Z,156581.72
2023-03-15T20:03:41.400Z,156581.72
2023-03-15T20:06:15.114Z,156572.44
2023-03-15T20:08:43.614Z,156573.78
2023-03-15T20:11:20.274Z,156560.56
2023-03-15T20:13:48.118Z,156559.19
2023-03-15T20:16:16.676Z,156556.56
2023-03-15T20:18:45.275Z,156542.00
2023-03-15T20:21:15.103Z,156551.25
2023-03-15T20:23:42.974Z,156548.63
2023-03-15T20:26:13.943Z,156547.31
2023-03-15T20:28:44.038Z,156532.75
2023-03-15T20:31:15.981Z,156530.06
2023-03-15T20:33:46.634Z,156516.81
2023-03-15T20:36:15.279Z,156508.88
2023-03-15T20:38:42.883Z,156504.94
2023-03-15T20:41:14.142Z,156499.63
2023-03-15T20:43:42.544Z,156495.63
2023-03-15T20:46:12.519Z,156487.72
2023-03-15T20:48:40.746Z,156487.72
2023-03-15T20:51:09.434Z,156481.09
2023-03-15T20:53:37.763Z,156487.72
2023-03-15T20:56:06.998Z,156485.06
2023-03-15T20:58:35.553Z,156491.69
2023-03-15T21:01:03.578Z,156497.00
2023-03-15T21:03:34.269Z,156490.38
2023-03-15T21:06:04.474Z,156493.00
2023-03-15T21:08:33.811Z,156507.56
2023-03-15T21:11:02.855Z,156506.25
2023-03-15T21:13:31.094Z,156491.69
2023-03-15T21:16:00.836Z,156502.25
2023-03-15T21:18:28.681Z,156512.88
2023-03-15T21:20:59.464Z,156530.06
2023-03-15T21:23:31.212Z,156531.38
2023-03-15T21:26:07.783Z,156534.06
2023-03-15T21:28:37.068Z,156536.69
2023-03-15T21:31:06.821Z,156548.63
2023-03-15T21:33:34.839Z,156560.56
2023-03-15T21:36:03.841Z,156563.19
2023-03-15T21:38:33.280Z,156555.25
2023-03-15T21:41:01.890Z,156560.56
2023-03-15T21:43:33.962Z,156548.63
2023-03-15T21:46:08.208Z,156557.88
2023-03-15T21:48:37.602Z,156561.88
2023-03-15T21:51:07.468Z,156567.16
2023-03-15T21:53:36.157Z,156563.19
2023-03-15T21:56:05.664Z,156552.56
2023-03-15T21:58:33.662Z,156553.94
2023-03-15T22:01:08.180Z,156552.56
2023-03-15T22:03:36.753Z,156552.56
2023-03-15T22:06:05.118Z,156555.25
2023-03-15T22:08:34.204Z,156548.63
2023-03-15T22:11:02.329Z,156549.94
2023-03-15T22:13:30.707Z,156546.00
2023-03-15T22:15:59.463Z,156538.00
2023-03-15T22:18:29.084Z,156544.63
2023-03-15T22:20:57.314Z,156528.75
2023-03-15T22:23:25.601Z,156530.06
2023-03-15T22:25:54.567Z,156532.75
2023-03-15T22:28:25.227Z,156530.06
2023-03-15T22:30:53.919Z,156518.19
2023-03-15T22:33:22.553Z,156504.94
2023-03-15T22:35:57.991Z,156512.88
2023-03-15T22:38:26.563Z,156512.88
2023-03-15T22:41:09.257Z,156499.63
2023-03-15T22:43:37.906Z,156494.31
2023-03-15T22:46:06.693Z,156462.59
2023-03-15T22:48:34.440Z,156485.06
2023-03-15T22:51:12.878Z,156467.84
2023-03-15T22:53:40.758Z,156465.22
2023-03-15T22:56:09.178Z,156473.16
2023-03-15T22:58:37.198Z,156473.16
2023-03-15T23:01:05.928Z,156457.28
2023-03-15T23:03:33.904Z,156462.59
2023-03-15T23:06:02.348Z,156450.66
2023-03-15T23:08:31.057Z,156449.34
2023-03-15T23:10:59.211Z,156442.72
2023-03-15T23:13:26.986Z,156444.03
2023-03-15T23:15:55.449Z,156440.03
2023-03-15T23:18:23.854Z,156412.25
2023-03-15T23:20:51.888Z,156416.25
2023-03-15T23:23:19.568Z,156416.25
2023-03-15T23:25:48.226Z,156393.75
2023-03-15T23:28:18.011Z,156387.13
2023-03-15T23:30:46.870Z,156380.50
2023-03-15T23:33:14.831Z,156379.19
2023-03-15T23:35:43.160Z,156367.28
2023-03-15T23:38:13.905Z,156373.88
2023-03-15T23:40:42.359Z,156372.56
2023-03-15T23:43:10.331Z,156365.97
2023-03-15T23:45:39.148Z,156342.13
2023-03-15T23:48:07.616Z,156352.72
2023-03-15T23:50:38.222Z,156346.09
2023-03-15T23:53:06.240Z,156335.50
2023-03-15T23:55:34.727Z,156313.00
2023-03-15T23:58:03.388Z,156305.06
